Time;durP1;ratioP1;P1;durP2;ratioP2;P2;SDS_P1;SDS_P2;PMS_P1;PMS_P2;Temp;Humidity;BMP_temperature;BMP_pressure;BME280_temperature;BME280_humidity;BME280_pressure;Samples;Min_cycle;Max_cycle;Signal;HPM_P1;HPM_P2
2023/04/02 00:04:04;;;;;;;157.27;38.20;;;;;;;;;;10543265;28;20063;-82
2023/04/02 00:09:14;;;;;;;103.13;31.03;;;;;;;;;;10553055;28;20031;-82
2023/04/02 00:14:26;;;;;;;123.37;35.07;;;;;;;;;;10520846;28;20394;-82
2023/04/02 00:19:46;;;;;;;111.70;33.93;;;;;;;;;;10526554;28;20043;-82
2023/04/02 00:24:50;;;;;;;123.53;31.90;;;;;;;;;;10511499;28;20040;-83
2023/04/02 00:29:52;;;;;;;150.83;38.47;;;;;;;;;;10523985;28;20058;-82
2023/04/02 00:34:53;;;;;;;125.67;34.00;;;;;;;;;;10537897;28;20028;-82
2023/04/02 00:39:58;;;;;;;100.93;29.67;;;;;;;;;;10536296;28;20441;-82
2023/04/02 00:45:00;;;;;;;143.23;36.60;;;;;;;;;;10513943;28;20051;-82
2023/04/02 00:50:08;;;;;;;128.00;35.80;;;;;;;;;;10538935;28;20114;-83
2023/04/02 00:55:15;;;;;;;140.50;36.43;;;;;;;;;;10544417;28;20032;-82
2023/04/02 01:00:19;;;;;;;117.70;37.33;;;;;;;;;;10510622;28;20035;-82
2023/04/02 01:05:22;;;;;;;107.40;31.67;;;;;;;;;;10529467;28;20044;-84
2023/04/02 01:10:43;;;;;;;97.90;31.20;;;;;;;;;;10529625;28;20129;-82
2023/04/02 01:16:07;;;;;;;106.87;30.80;;;;;;;;;;10484258;28;20048;-81
2023/04/02 01:21:12;;;;;;;108.93;33.27;;;;;;;;;;10539178;28;20020;-82
2023/04/02 01:26:28;;;;;;;111.90;32.53;;;;;;;;;;10531296;28;20183;-83
2023/04/02 01:31:31;;;;;;;110.03;34.50;;;;;;;;;;10535157;28;20023;-84
2023/04/02 01:36:36;;;;;;;106.97;32.00;;;;;;;;;;10516813;28;20032;-81
2023/04/02 01:41:49;;;;;;;103.40;31.00;;;;;;;;;;10502633;28;20032;-82
2023/04/02 01:46:50;;;;;;;130.13;37.93;;;;;;;;;;10540725;28;20035;-83
2023/04/02 01:51:55;;;;;;;128.37;42.13;;;;;;;;;;10548779;28;20549;-84
2023/04/02 01:56:57;;;;;;;97.23;36.20;;;;;;;;;;10551539;28;20027;-82
2023/04/02 02:02:03;;;;;;;95.80;35.07;;;;;;;;;;10501593;28;20032;-82
2023/04/02 02:07:04;;;;;;;80.30;27.27;;;;;;;;;;10548021;28;20390;-83
2023/04/02 02:12:05;;;;;;;94.40;31.17;;;;;;;;;;10516038;28;20119;-82
2023/04/02 02:17:12;;;;;;;89.37;29.23;;;;;;;;;;10493815;28;20492;-85
2023/04/02 02:22:28;;;;;;;93.17;29.23;;;;;;;;;;10485423;28;20045;-83
2023/04/02 02:27:29;;;;;;;;;;;;;;;;;;10528598;28;20726;-82
2023/04/02 02:32:31;;;;;;;78.93;26.40;;;;;;;;;;10491954;28;19912;-82
2023/04/02 02:37:37;;;;;;;70.77;27.07;;;;;;;;;;10529812;28;20024;-83
2023/04/02 02:42:40;;;;;;;83.13;26.88;;;;;;;;;;10479102;28;20521;-82
2023/04/02 02:47:42;;;;;;;77.93;28.87;;;;;;;;;;10493565;28;20496;-85
2023/04/02 02:52:45;;;;;;;75.47;26.30;;;;;;;;;;10493402;28;20028;-81
2023/04/02 02:57:51;;;;;;;84.27;29.57;;;;;;;;;;10528733;28;20036;-84
2023/04/02 03:02:54;;;;;;;82.07;30.80;;;;;;;;;;10518893;23;20064;-84
2023/04/02 03:07:56;;;;;;;94.50;33.47;;;;;;;;;;10554097;28;20438;-82
2023/04/02 03:13:09;;;;;;;94.33;29.57;;;;;;;;;;10529722;28;20040;-85
2023/04/02 03:18:15;;;;;;;104.50;31.73;;;;;;;;;;10501506;28;20063;-83
2023/04/02 03:23:31;;;;;;;88.45;30.13;;;;;;;;;;10488099;28;20683;-85
2023/04/02 03:28:34;;;;;;;97.90;34.30;;;;;;;;;;10520110;28;20040;-83
2023/04/02 03:33:38;;;;;;;104.70;35.83;;;;;;;;;;10499736;28;20039;-83
2023/04/02 03:38:50;;;;;;;128.63;35.47;;;;;;;;;;10487722;28;20032;-83
2023/04/02 03:43:55;;;;;;;130.43;41.40;;;;;;;;;;10513675;28;20036;-84
2023/04/02 03:49:06;;;;;;;121.03;37.67;;;;;;;;;;10507016;28;20035;-84
2023/04/02 03:54:12;;;;;;;114.90;34.30;;;;;;;;;;10528267;28;20028;-85
2023/04/02 03:59:12;;;;;;;;;;;;;;;;;;10526177;28;20392;-82
2023/04/02 04:04:16;;;;;;;143.80;35.40;;;;;;;;;;10506994;28;19931;-83
2023/04/02 04:09:33;;;;;;;119.57;33.53;;;;;;;;;;10526990;28;20024;-82
2023/04/02 04:14:36;;;;;;;81.70;26.50;;;;;;;;;;10526947;28;20032;-83
2023/04/02 04:19:37;;;;;;;96.90;32.27;;;;;;;;;;10524791;28;20491;-82
2023/04/02 04:24:44;;;;;;;122.47;35.83;;;;;;;;;;10508003;28;20074;-84
2023/04/02 04:29:48;;;;;;;95.73;27.53;;;;;;;;;;10507100;28;20446;-81
2023/04/02 04:34:52;;;;;;;82.27;25.37;;;;;;;;;;10522682;22;20059;-84
2023/04/02 04:40:12;;;;;;;88.23;26.43;;;;;;;;;;10509238;28;20024;-82
2023/04/02 04:45:26;;;;;;;63.53;21.90;;;;;;;;;;10515796;28;20032;-84
2023/04/02 04:50:32;;;;;;;59.97;20.73;;;;;;;;;;10518485;28;20020;-85
2023/04/02 04:55:38;;;;;;;47.00;16.57;;;;;;;;;;10519009;28;20650;-84
2023/04/02 05:00:54;;;;;;;43.17;15.20;;;;;;;;;;10518716;28;20028;-81
2023/04/02 05:05:56;;;;;;;;;;;;;;;;;;10522056;28;20450;-81
2023/04/02 05:10:59;;;;;;;34.47;13.30;;;;;;;;;;10524094;28;19912;-82
2023/04/02 05:16:21;;;;;;;50.80;15.77;;;;;;;;;;10521856;28;20070;-82
2023/04/02 05:21:36;;;;;;;39.80;14.07;;;;;;;;;;10532497;28;20032;-82
2023/04/02 05:26:41;;;;;;;31.40;11.43;;;;;;;;;;10528690;28;20051;-85
2023/04/02 05:31:48;;;;;;;24.87;7.57;;;;;;;;;;10509841;28;20694;-82
2023/04/02 05:36:52;;;;;;;32.47;11.50;;;;;;;;;;10519799;28;20050;-84
2023/04/02 05:42:07;;;;;;;24.07;9.77;;;;;;;;;;10518901;28;20051;-81
2023/04/02 05:47:12;;;;;;;22.50;7.97;;;;;;;;;;10521784;28;20085;-83
2023/04/02 05:52:24;;;;;;;17.20;6.83;;;;;;;;;;10533713;28;20028;-85
2023/04/02 05:57:37;;;;;;;22.13;6.63;;;;;;;;;;10518547;28;20028;-82
2023/04/02 06:02:44;;;;;;;15.53;5.43;;;;;;;;;;10517892;28;20040;-84
2023/04/02 06:07:50;;;;;;;13.10;4.70;;;;;;;;;;10507928;28;20041;-83
2023/04/02 06:12:59;;;;;;;8.13;4.03;;;;;;;;;;10521351;28;20032;-83
2023/04/02 06:18:08;;;;;;;9.57;4.03;;;;;;;;;;10528434;28;20040;-82
2023/04/02 06:23:17;;;;;;;5.80;3.10;;;;;;;;;;10527818;28;20414;-83
2023/04/02 06:28:21;;;;;;;5.87;2.90;;;;;;;;;;10515758;28;20064;-83
2023/04/02 06:33:23;;;;;;;6.60;3.17;;;;;;;;;;10506787;28;20087;-83
2023/04/02 06:38:26;;;;;;;5.13;3.10;;;;;;;;;;10516300;28;20031;-83
2023/04/02 06:43:34;;;;;;;7.57;3.77;;;;;;;;;;10513385;28;20036;-82
2023/04/02 06:48:36;;;;;;;9.03;3.93;;;;;;;;;;10514211;28;20034;-83
2023/04/02 06:53:48;;;;;;;5.63;3.10;;;;;;;;;;10514979;28;20491;-82
2023/04/02 06:58:49;;;;;;;6.23;3.33;;;;;;;;;;10513633;28;20519;-82
2023/04/02 07:03:52;;;;;;;9.73;3.37;;;;;;;;;;10509629;28;20051;-82
2023/04/02 07:08:53;;;;;;;5.97;2.97;;;;;;;;;;10508242;28;20047;-82
2023/04/02 07:13:56;;;;;;;9.57;4.00;;;;;;;;;;10513128;28;20034;-82
2023/04/02 07:18:59;;;;;;;8.17;3.10;;;;;;;;;;10497940;28;20387;-84
2023/04/02 07:24:00;;;;;;;6.83;3.00;;;;;;;;;;10484789;28;20039;-84
2023/04/02 07:29:01;;;;;;;10.20;3.80;;;;;;;;;;10487834;28;20064;-84
2023/04/02 07:34:03;;;;;;;7.67;3.90;;;;;;;;;;10483350;28;20087;-84
2023/04/02 07:39:04;;;;;;;11.57;4.20;;;;;;;;;;10473585;28;20481;-83
2023/04/02 07:44:05;;;;;;;10.13;4.73;;;;;;;;;;10486545;28;20541;-84
2023/04/02 07:49:06;;;;;;;7.67;3.77;;;;;;;;;;10492302;28;20036;-81
2023/04/02 07:54:09;;;;;;;5.97;2.77;;;;;;;;;;10507979;28;20044;-81
2023/04/02 07:59:10;;;;;;;5.77;2.63;;;;;;;;;;10492335;28;20039;-81
2023/04/02 08:04:18;;;;;;;3.37;1.80;;;;;;;;;;10486896;28;20112;-83
2023/04/02 08:09:19;;;;;;;3.43;1.90;;;;;;;;;;10510940;28;20139;-82
2023/04/02 08:14:20;;;;;;;2.80;1.60;;;;;;;;;;10520223;28;20445;-82
2023/04/02 08:19:21;;;;;;;5.33;2.10;;;;;;;;;;10512376;28;20055;-85
2023/04/02 08:24:22;;;;;;;3.53;1.97;;;;;;;;;;10496258;28;20036;-83
2023/04/02 08:29:24;;;;;;;4.60;2.57;;;;;;;;;;10526165;28;20862;-83
2023/04/02 08:34:25;;;;;;;7.10;3.37;;;;;;;;;;10489456;28;20103;-83
2023/04/02 08:39:31;;;;;;;8.73;4.27;;;;;;;;;;10506129;28;20047;-83
2023/04/02 08:44:43;;;;;;;10.50;5.40;;;;;;;;;;10491223;28;20052;-84
2023/04/02 08:49:52;;;;;;;11.97;6.40;;;;;;;;;;10516942;28;20036;-85
2023/04/02 08:54:55;;;;;;;10.53;5.40;;;;;;;;;;10500834;28;20035;-84
2023/04/02 09:00:01;;;;;;;11.67;5.83;;;;;;;;;;10484945;28;20033;-84
2023/04/02 09:05:04;;;;;;;12.50;6.03;;;;;;;;;;10501978;28;20116;-84
2023/04/02 09:10:06;;;;;;;13.43;6.60;;;;;;;;;;10482168;28;20111;-84
2023/04/02 09:15:10;;;;;;;14.43;7.10;;;;;;;;;;10511207;28;20033;-85
2023/04/02 09:20:16;;;;;;;12.90;7.03;;;;;;;;;;10509783;28;20036;-84
2023/04/02 09:25:19;;;;;;;12.63;6.50;;;;;;;;;;10521829;28;20467;-85
2023/04/02 09:30:23;;;;;;;16.30;8.37;;;;;;;;;;10521035;28;20072;-85
2023/04/02 09:35:25;;;;;;;17.93;8.17;;;;;;;;;;10521853;28;20434;-85
2023/04/02 09:40:27;;;;;;;20.53;10.20;;;;;;;;;;10513015;28;20036;-85
2023/04/02 09:45:28;;;;;;;26.53;11.67;;;;;;;;;;10512429;28;20049;-85
2023/04/02 09:50:32;;;;;;;26.53;12.93;;;;;;;;;;10508732;28;20028;-87
2023/04/02 09:55:33;;;;;;;31.70;13.93;;;;;;;;;;10504213;28;20040;-85
2023/04/02 10:00:34;;;;;;;40.03;16.00;;;;;;;;;;10508694;28;20032;-85
2023/04/02 10:05:37;;;;;;;44.20;16.07;;;;;;;;;;10508135;28;20052;-86
2023/04/02 10:10:47;;;;;;;38.53;14.23;;;;;;;;;;10507249;28;20040;-89
2023/04/02 10:15:59;;;;;;;32.17;13.40;;;;;;;;;;10514173;28;20043;-87
2023/04/02 10:21:03;;;;;;;18.33;9.07;;;;;;;;;;10495311;28;20036;-86
2023/04/02 10:26:22;;;;;;;14.27;5.93;;;;;;;;;;10481345;28;20535;-86
2023/04/02 10:31:25;;;;;;;15.67;6.47;;;;;;;;;;10510424;28;20032;-86
2023/04/02 10:36:35;;;;;;;13.20;5.50;;;;;;;;;;10513583;28;20479;-88
2023/04/02 10:41:56;;;;;;;15.73;6.67;;;;;;;;;;10483913;28;20033;-87
2023/04/02 10:47:00;;;;;;;14.53;6.57;;;;;;;;;;10491509;28;20044;-85
2023/04/02 10:52:07;;;;;;;14.07;6.30;;;;;;;;;;10506046;28;20035;-85
2023/04/02 10:57:27;;;;;;;16.53;7.20;;;;;;;;;;10513164;28;20043;-86
2023/04/02 11:02:30;;;;;;;18.50;8.20;;;;;;;;;;10504794;28;20028;-86
2023/04/02 11:07:34;;;;;;;21.90;10.07;;;;;;;;;;10517574;28;20032;-86
2023/04/02 11:12:36;;;;;;;21.50;10.27;;;;;;;;;;10497253;28;20503;-86
2023/04/02 11:17:38;;;;;;;21.37;8.73;;;;;;;;;;10512301;28;20395;-86
2023/04/02 11:22:40;;;;;;;22.97;9.93;;;;;;;;;;10496550;28;20034;-86
2023/04/02 11:27:44;;;;;;;24.67;10.97;;;;;;;;;;10507672;28;20089;-86
2023/04/02 11:32:49;;;;;;;28.67;10.73;;;;;;;;;;10498853;28;20047;-87
2023/04/02 11:37:50;;;;;;;29.70;14.33;;;;;;;;;;10499477;28;20383;-87
2023/04/02 11:42:52;;;;;;;31.80;13.57;;;;;;;;;;10500866;28;20067;-86
2023/04/02 11:48:07;;;;;;;28.13;12.43;;;;;;;;;;10512625;28;20796;-86
2023/04/02 11:53:14;;;;;;;24.13;11.77;;;;;;;;;;10506690;28;20048;-87
2023/04/02 11:58:40;;;;;;;26.53;11.67;;;;;;;;;;10524350;28;20457;-85
2023/04/02 12:03:46;;;;;;;22.65;10.27;;;;;;;;;;10484918;28;20039;-89
2023/04/02 12:08:53;;;;;;;26.48;13.25;;;;;;;;;;10493611;28;20032;-86
2023/04/02 12:13:57;;;;;;;26.30;12.83;;;;;;;;;;10483328;28;20031;-86
2023/04/02 12:18:59;;;;;;;27.83;13.37;;;;;;;;;;10508889;28;20031;-87
2023/04/02 12:24:00;;;;;;;27.03;12.03;;;;;;;;;;10500436;28;20040;-88
2023/04/02 12:29:15;;;;;;;24.10;11.27;;;;;;;;;;10506875;28;20540;-87
2023/04/02 12:34:17;;;;;;;24.97;11.87;;;;;;;;;;10515827;28;20610;-87
2023/04/02 12:39:18;;;;;;;21.43;11.03;;;;;;;;;;10482465;28;20040;-86
2023/04/02 12:44:21;;;;;;;27.80;12.73;;;;;;;;;;10486290;28;20683;-86
2023/04/02 12:49:27;;;;;;;25.60;12.87;;;;;;;;;;10479542;28;20644;-86
2023/04/02 12:54:30;;;;;;;26.70;12.80;;;;;;;;;;10481952;28;20027;-85
2023/04/02 12:59:34;;;;;;;30.30;14.83;;;;;;;;;;10474533;28;20547;-86
2023/04/02 13:04:45;;;;;;;35.67;16.77;;;;;;;;;;10481283;28;20036;-85
2023/04/02 13:09:50;;;;;;;35.90;16.30;;;;;;;;;;10483758;28;20032;-86
2023/04/02 13:15:02;;;;;;;35.13;15.03;;;;;;;;;;10483861;28;20071;-85
2023/04/02 13:20:22;;;;;;;32.40;16.60;;;;;;;;;;10482409;28;20036;-86
2023/04/02 13:25:26;;;;;;;36.90;17.53;;;;;;;;;;10486457;28;20047;-84
2023/04/02 13:30:28;;;;;;;34.17;16.00;;;;;;;;;;10487909;28;20027;-86
2023/04/02 13:35:29;;;;;;;35.73;15.00;;;;;;;;;;10486183;28;20044;-85
2023/04/02 13:40:30;;;;;;;35.10;16.80;;;;;;;;;;10489511;28;20031;-85
2023/04/02 13:45:35;;;;;;;39.03;17.63;;;;;;;;;;10492745;28;20044;-85
2023/04/02 13:50:36;;;;;;;27.37;12.70;;;;;;;;;;10500621;28;20119;-84
2023/04/02 13:55:38;;;;;;;26.47;13.23;;;;;;;;;;10521179;28;20694;-85
2023/04/02 14:00:41;;;;;;;27.23;13.03;;;;;;;;;;10519090;28;20039;-85
2023/04/02 14:06:03;;;;;;;28.53;13.43;;;;;;;;;;10482847;28;20369;-85
2023/04/02 14:11:10;;;;;;;27.03;12.83;;;;;;;;;;10490862;28;20757;-84
2023/04/02 14:16:11;;;;;;;26.23;13.50;;;;;;;;;;10478174;28;20028;-86
2023/04/02 14:21:25;;;;;;;26.00;12.33;;;;;;;;;;10493570;28;20497;-85
2023/04/02 14:26:38;;;;;;;28.03;14.50;;;;;;;;;;10514854;28;20111;-85
2023/04/02 14:31:42;;;;;;;29.97;14.57;;;;;;;;;;10497173;28;20399;-85
2023/04/02 14:37:02;;;;;;;27.80;14.60;;;;;;;;;;10517152;28;20528;-85
2023/04/02 14:42:12;;;;;;;21.93;12.30;;;;;;;;;;10506710;28;20033;-85
2023/04/02 14:47:22;;;;;;;25.37;11.83;;;;;;;;;;10511970;28;20044;-86
2023/04/02 14:52:25;;;;;;;23.03;12.33;;;;;;;;;;10528912;28;20034;-85
2023/04/02 14:57:32;;;;;;;21.07;10.40;;;;;;;;;;10506350;28;20035;-85
2023/04/02 15:02:33;;;;;;;25.07;11.03;;;;;;;;;;10500199;28;20033;-87
2023/04/02 15:07:39;;;;;;;19.50;11.27;;;;;;;;;;10495870;28;20047;-85
2023/04/02 15:12:40;;;;;;;19.83;10.70;;;;;;;;;;10517694;28;20090;-86
2023/04/02 15:17:42;;;;;;;19.63;11.50;;;;;;;;;;10517860;28;20745;-84
2023/04/02 15:22:46;;;;;;;19.27;9.63;;;;;;;;;;10522177;28;20044;-87
2023/04/02 15:28:09;;;;;;;14.37;8.23;;;;;;;;;;10520040;28;20770;-88
2023/04/02 15:33:19;;;;;;;15.47;7.87;;;;;;;;;;10514919;28;20503;-84
2023/04/02 15:38:26;;;;;;;16.57;8.70;;;;;;;;;;10502421;28;20475;-85
2023/04/02 15:43:27;;;;;;;10.00;6.83;;;;;;;;;;10510313;28;20123;-85
2023/04/02 15:48:49;;;;;;;13.97;7.90;;;;;;;;;;10524794;28;20048;-85
2023/04/02 15:54:13;;;;;;;13.17;7.43;;;;;;;;;;10497290;28;20044;-85
2023/04/02 15:59:47;;;;;;;12.43;7.83;;;;;;;;;;10507968;28;20036;-85
2023/04/02 16:04:57;;;;;;;14.30;7.37;;;;;;;;;;10477265;28;20059;-85
2023/04/02 16:10:10;;;;;;;15.53;8.00;;;;;;;;;;10517299;28;20028;-86
2023/04/02 16:15:16;;;;;;;15.53;9.43;;;;;;;;;;10523299;28;20020;-84
2023/04/02 16:20:26;;;;;;;15.43;7.37;;;;;;;;;;10502935;28;20092;-85
2023/04/02 16:25:31;;;;;;;14.27;7.63;;;;;;;;;;10506227;28;20396;-85
2023/04/02 16:30:38;;;;;;;13.40;7.63;;;;;;;;;;10477833;28;20028;-85
2023/04/02 16:35:50;;;;;;;13.63;7.23;;;;;;;;;;10475680;28;20476;-84
2023/04/02 16:40:55;;;;;;;13.53;7.80;;;;;;;;;;10498106;28;20024;-83
2023/04/02 16:45:58;;;;;;;15.10;7.33;;;;;;;;;;10485144;28;20040;-83
2023/04/02 16:51:12;;;;;;;14.30;7.03;;;;;;;;;;10498199;28;20138;-84
2023/04/02 16:56:33;;;;;;;15.40;8.17;;;;;;;;;;10509476;28;20027;-83
2023/04/02 17:01:43;;;;;;;17.60;9.27;;;;;;;;;;10486907;28;20480;-83
2023/04/02 17:06:54;;;;;;;16.80;8.77;;;;;;;;;;10507074;28;20509;-85
2023/04/02 17:12:00;;;;;;;16.00;8.47;;;;;;;;;;10512676;28;20016;-84
2023/04/02 17:17:03;;;;;;;14.35;7.60;;;;;;;;;;10504214;28;20660;-84
2023/04/02 17:22:05;;;;;;;15.37;9.03;;;;;;;;;;10475090;28;20032;-83
2023/04/02 17:27:14;;;;;;;13.90;8.03;;;;;;;;;;10478588;28;20036;-83
2023/04/02 17:32:23;;;;;;;10.50;6.27;;;;;;;;;;10477267;28;20037;-83
2023/04/02 17:37:34;;;;;;;11.73;6.93;;;;;;;;;;10468572;28;20514;-86
2023/04/02 17:42:41;;;;;;;13.40;6.43;;;;;;;;;;10481331;28;20040;-84
2023/04/02 17:47:48;;;;;;;16.03;8.57;;;;;;;;;;10485978;28;20361;-85
2023/04/02 17:53:07;;;;;;;20.27;8.87;;;;;;;;;;10507996;28;20043;-86
2023/04/02 17:58:26;;;;;;;18.10;9.27;;;;;;;;;;10494333;28;20036;-86
2023/04/02 18:03:36;;;;;;;23.47;10.07;;;;;;;;;;10471496;28;20074;-84
2023/04/02 18:08:55;;;;;;;20.40;10.13;;;;;;;;;;10490109;28;20045;-86
2023/04/02 18:13:59;;;;;;;25.57;13.03;;;;;;;;;;10486979;28;20357;-85
2023/04/02 18:19:23;;;;;;;24.97;11.43;;;;;;;;;;10480971;28;20683;-87
2023/04/02 18:24:32;;;;;;;23.20;11.00;;;;;;;;;;10490060;28;20037;-84
2023/04/02 18:29:45;;;;;;;24.23;11.90;;;;;;;;;;10487227;28;20105;-83
2023/04/02 18:34:54;;;;;;;21.93;11.30;;;;;;;;;;10487425;28;20065;-84
2023/04/02 18:40:02;;;;;;;25.60;12.27;;;;;;;;;;10506637;28;20037;-85
2023/04/02 18:45:14;;;;;;;24.63;11.03;;;;;;;;;;10510371;28;20040;-84
2023/04/02 18:50:17;;;;;;;24.80;12.27;;;;;;;;;;10517113;28;20024;-85
2023/04/02 18:55:27;;;;;;;23.57;12.00;;;;;;;;;;10518372;28;20036;-86
2023/04/02 19:00:30;;;;;;;24.13;12.73;;;;;;;;;;10489930;28;20039;-84
2023/04/02 19:05:52;;;;;;;28.87;13.70;;;;;;;;;;10520626;28;20108;-84
2023/04/02 19:10:57;;;;;;;27.57;13.33;;;;;;;;;;10517446;28;20039;-84
2023/04/02 19:16:17;;;;;;;27.13;13.47;;;;;;;;;;10520695;28;20440;-85
2023/04/02 19:21:26;;;;;;;24.23;11.57;;;;;;;;;;10524828;28;20040;-85
2023/04/02 19:26:35;;;;;;;27.40;12.87;;;;;;;;;;10520944;28;20132;-84
2023/04/02 19:32:02;;;;;;;25.20;12.63;;;;;;;;;;10525871;28;20115;-85
2023/04/02 19:37:05;;;;;;;;;;;;;;;;;;10520470;28;20055;-83
2023/04/02 19:42:19;;;;;;;27.23;13.00;;;;;;;;;;10582895;23;20012;-86
2023/04/02 19:47:20;;;;;;;27.10;13.20;;;;;;;;;;10567960;27;20546;-84
2023/04/02 19:52:21;;;;;;;26.47;12.30;;;;;;;;;;10564149;22;20991;-84
2023/04/02 19:57:24;;;;;;;28.70;13.13;;;;;;;;;;10539693;22;20063;-84
2023/04/02 20:02:27;;;;;;;37.93;15.67;;;;;;;;;;10556198;28;20115;-84
2023/04/02 20:07:31;;;;;;;25.20;12.20;;;;;;;;;;10568075;28;20043;-83
2023/04/02 20:12:32;;;;;;;26.33;11.57;;;;;;;;;;10566274;28;20028;-84
2023/04/02 20:17:33;;;;;;;24.87;11.83;;;;;;;;;;10560026;28;20020;-84
2023/04/02 20:22:34;;;;;;;25.10;11.83;;;;;;;;;;10566178;28;20019;-84
2023/04/02 20:27:34;;;;;;;23.63;12.53;;;;;;;;;;10539098;28;20127;-83
2023/04/02 20:32:38;;;;;;;28.57;12.90;;;;;;;;;;10564626;28;20027;-84
2023/04/02 20:37:40;;;;;;;28.03;12.30;;;;;;;;;;10569370;28;20570;-86
2023/04/02 20:42:41;;;;;;;20.73;10.37;;;;;;;;;;10553025;28;20106;-84
2023/04/02 20:47:42;;;;;;;25.60;13.07;;;;;;;;;;10568419;28;20035;-84
2023/04/02 20:52:43;;;;;;;23.70;12.50;;;;;;;;;;10569391;28;20051;-84
2023/04/02 20:57:44;;;;;;;19.67;10.47;;;;;;;;;;10542266;28;20065;-84
2023/04/02 21:02:45;;;;;;;21.63;10.27;;;;;;;;;;10566913;28;20173;-84
2023/04/02 21:07:48;;;;;;;17.47;9.00;;;;;;;;;;10566431;28;20132;-85
2023/04/02 21:12:49;;;;;;;20.03;9.53;;;;;;;;;;10548827;28;20036;-86
2023/04/02 21:17:50;;;;;;;23.10;10.93;;;;;;;;;;10549685;28;20123;-84
2023/04/02 21:22:51;;;;;;;19.27;9.27;;;;;;;;;;10542110;28;20032;-85
2023/04/02 21:27:52;;;;;;;20.90;9.80;;;;;;;;;;10555847;28;20040;-83
2023/04/02 21:32:54;;;;;;;17.50;7.43;;;;;;;;;;10561572;28;20028;-86
2023/04/02 21:37:55;;;;;;;21.23;10.10;;;;;;;;;;10567334;28;20033;-85
2023/04/02 21:42:57;;;;;;;22.77;10.60;;;;;;;;;;10566472;28;20681;-84
2023/04/02 21:47:58;;;;;;;24.77;10.50;;;;;;;;;;10575742;28;20042;-85
2023/04/02 21:53:01;;;;;;;23.13;10.90;;;;;;;;;;10549961;28;20046;-84
2023/04/02 21:58:02;;;;;;;20.37;9.90;;;;;;;;;;10559403;28;20028;-83
2023/04/02 22:03:04;;;;;;;22.70;11.17;;;;;;;;;;10553481;28;20059;-84
2023/04/02 22:08:06;;;;;;;21.33;10.17;;;;;;;;;;10573429;28;20050;-84
2023/04/02 22:13:07;;;;;;;21.37;10.30;;;;;;;;;;10528858;28;20124;-84
2023/04/02 22:18:08;;;;;;;24.10;9.93;;;;;;;;;;10547303;28;20068;-86
2023/04/02 22:23:09;;;;;;;23.70;11.13;;;;;;;;;;10550679;28;20032;-86
2023/04/02 22:28:10;;;;;;;28.73;13.60;;;;;;;;;;10548646;28;20039;-86
2023/04/02 22:33:11;;;;;;;26.83;12.67;;;;;;;;;;10556843;28;20027;-86
2023/04/02 22:38:12;;;;;;;30.00;12.90;;;;;;;;;;10551505;28;20201;-86
2023/04/02 22:43:14;;;;;;;25.60;13.23;;;;;;;;;;10560418;27;20096;-87
2023/04/02 22:48:15;;;;;;;30.30;15.17;;;;;;;;;;10566228;28;20047;-85
2023/04/02 22:53:16;;;;;;;27.00;13.57;;;;;;;;;;10564588;28;20063;-85
2023/04/02 22:58:17;;;;;;;23.87;12.37;;;;;;;;;;10552985;28;20115;-85
2023/04/02 23:03:18;;;;;;;16.90;9.90;;;;;;;;;;10568282;28;20023;-87
2023/04/02 23:08:19;;;;;;;19.90;9.63;;;;;;;;;;10570656;28;20039;-85
2023/04/02 23:13:20;;;;;;;20.53;9.80;;;;;;;;;;10551062;28;20029;-85
2023/04/02 23:18:22;;;;;;;18.57;9.80;;;;;;;;;;10545852;28;20484;-85
2023/04/02 23:23:23;;;;;;;19.87;9.77;;;;;;;;;;10571765;27;20094;-84
2023/04/02 23:28:24;;;;;;;14.43;8.27;;;;;;;;;;10539938;28;20039;-84
2023/04/02 23:33:25;;;;;;;16.60;8.40;;;;;;;;;;10547676;28;20507;-84
2023/04/02 23:38:26;;;;;;;11.83;6.67;;;;;;;;;;10539446;28;20023;-84
2023/04/02 23:43:27;;;;;;;14.17;7.43;;;;;;;;;;10536515;28;20109;-84
2023/04/02 23:48:30;;;;;;;13.37;7.37;;;;;;;;;;10550140;28;20039;-82
2023/04/02 23:53:32;;;;;;;11.33;6.43;;;;;;;;;;10570146;28;20060;-84
2023/04/02 23:58:33;;;;;;;13.00;6.90;;;;;;;;;;10560584;28;20622;-84
